Time;durP1;ratioP1;P1;durP2;ratioP2;P2;SDS_P1;SDS_P2;PMS_P1;PMS_P2;Temp;Humidity;BMP_temperature;BMP_pressure;BME280_temperature;BME280_humidity;BME280_pressure;Samples;Min_cycle;Max_cycle;Signal;HPM_P1;HPM_P2
2023/04/22 00:00:34;;;;;;;0.52;0.52;;;12.40;99.90;;;;;;5016267;28;20057;-64
2023/04/22 00:03:02;;;;;;;2.00;0.85;;;12.20;99.90;;;;;;5028679;28;20059;-64
2023/04/22 00:05:27;;;;;;;0.45;0.40;;;12.10;99.90;;;;;;5021297;28;20041;-64
2023/04/22 00:07:53;;;;;;;0.45;0.45;;;12.10;99.90;;;;;;5015009;28;20053;-64
2023/04/22 00:10:19;;;;;;;0.30;0.30;;;12.00;99.90;;;;;;5032673;28;20053;-64
2023/04/22 00:12:45;;;;;;;0.00;0.00;;;12.00;99.90;;;;;;5030985;28;20049;-64
2023/04/22 00:15:11;;;;;;;0.03;0.03;;;11.90;99.90;;;;;;5021877;28;20049;-64
2023/04/22 00:17:36;;;;;;;0.28;0.28;;;11.90;99.90;;;;;;5019250;28;20084;-64
2023/04/22 00:20:03;;;;;;;0.08;0.08;;;11.80;99.90;;;;;;5025662;28;20045;-64
2023/04/22 00:22:28;;;;;;;0.30;0.30;;;11.90;99.90;;;;;;5032839;28;20942;-64
2023/04/22 00:24:54;;;;;;;0.10;0.10;;;11.90;99.90;;;;;;5020742;28;20042;-64
2023/04/22 00:27:19;;;;;;;0.10;0.10;;;11.90;99.90;;;;;;5014550;28;20042;-64
2023/04/22 00:29:45;;;;;;;0.30;0.30;;;11.90;99.90;;;;;;5033132;28;20072;-64
2023/04/22 00:32:11;;;;;;;0.10;0.10;;;11.90;99.90;;;;;;5018235;28;20049;-64
2023/04/22 00:34:36;;;;;;;0.65;0.65;;;11.80;99.90;;;;;;5024406;28;20048;-64
2023/04/22 00:37:02;;;;;;;0.25;0.25;;;11.80;99.90;;;;;;5019877;28;20051;-64
2023/04/22 00:39:28;;;;;;;0.20;0.20;;;11.70;99.90;;;;;;5024727;28;20041;-64
2023/04/22 00:41:54;;;;;;;0.22;0.22;;;11.70;99.90;;;;;;5017792;28;20053;-64
2023/04/22 00:44:21;;;;;;;0.10;0.10;;;11.70;99.90;;;;;;5030262;28;20048;-63
2023/04/22 00:46:47;;;;;;;0.10;0.10;;;11.60;99.90;;;;;;5024634;28;20082;-64
2023/04/22 00:49:14;;;;;;;0.22;0.22;;;11.50;99.90;;;;;;5032684;28;20048;-64
2023/04/22 00:51:40;;;;;;;0.10;0.10;;;11.40;99.90;;;;;;5017037;28;20058;-64
2023/04/22 00:54:05;;;;;;;0.10;0.10;;;11.30;99.90;;;;;;5028078;28;20500;-64
2023/04/22 00:56:34;;;;;;;0.20;0.20;;;11.30;99.90;;;;;;5020169;28;20065;-64
2023/04/22 00:59:00;;;;;;;0.00;0.00;;;11.30;99.90;;;;;;5022499;28;20489;-64
2023/04/22 01:01:26;;;;;;;0.20;0.20;;;11.30;99.90;;;;;;5032285;28;20045;-64
2023/04/22 01:03:52;;;;;;;0.10;0.10;;;11.30;99.90;;;;;;5023400;28;20057;-64
2023/04/22 01:06:21;;;;;;;0.00;0.00;;;11.20;99.90;;;;;;5014391;28;20045;-64
2023/04/22 01:08:47;;;;;;;0.15;0.15;;;11.20;99.90;;;;;;5032353;28;20052;-64
2023/04/22 01:11:13;;;;;;;0.20;0.20;;;11.10;99.90;;;;;;5018966;28;20038;-64
2023/04/22 01:13:38;;;;;;;0.25;0.25;;;11.10;99.90;;;;;;5023750;28;20469;-64
2023/04/22 01:16:07;;;;;;;0.30;0.30;;;11.20;99.90;;;;;;5032207;28;20056;-64
2023/04/22 01:18:34;;;;;;;0.85;0.60;;;11.10;99.90;;;;;;5020078;28;20050;-64
2023/04/22 01:21:01;;;;;;;0.28;0.28;;;11.10;99.90;;;;;;5013915;28;20084;-64
2023/04/22 01:23:27;;;;;;;0.43;0.43;;;11.10;99.90;;;;;;5031593;28;20488;-64
2023/04/22 01:25:52;;;;;;;0.15;0.15;;;11.10;99.90;;;;;;5017375;28;20093;-64
2023/04/22 01:28:18;;;;;;;0.13;0.13;;;11.00;99.90;;;;;;5031299;28;20080;-64
2023/04/22 01:30:44;;;;;;;0.75;0.75;;;11.00;99.90;;;;;;5031495;28;20053;-64
2023/04/22 01:33:10;;;;;;;0.47;0.47;;;11.00;99.90;;;;;;5029898;28;20095;-64
2023/04/22 01:35:36;;;;;;;0.08;0.08;;;11.00;99.90;;;;;;5043053;28;20045;-64
2023/04/22 01:38:04;;;;;;;0.30;0.30;;;11.00;99.90;;;;;;5020005;28;20095;-64
2023/04/22 01:40:31;;;;;;;0.00;0.00;;;10.90;99.90;;;;;;5031416;28;20103;-64
2023/04/22 01:42:58;;;;;;;0.43;0.43;;;10.90;99.90;;;;;;5024727;28;20378;-64
2023/04/22 01:45:24;;;;;;;0.77;0.77;;;10.90;99.90;;;;;;5021102;28;20393;-64
2023/04/22 01:47:50;;;;;;;0.00;0.00;;;10.80;99.90;;;;;;5030966;28;20400;-64
2023/04/22 01:50:16;;;;;;;0.57;0.57;;;10.80;99.90;;;;;;5030619;28;20041;-64
2023/04/22 01:52:41;;;;;;;0.50;0.50;;;10.70;99.90;;;;;;5016936;28;20566;-64
2023/04/22 01:55:08;;;;;;;0.03;0.03;;;10.70;99.90;;;;;;5026387;28;20057;-64
2023/04/22 01:57:33;;;;;;;0.10;0.10;;;10.80;99.90;;;;;;5029018;28;20073;-64
2023/04/22 01:59:59;;;;;;;0.00;0.00;;;10.70;99.90;;;;;;5025354;28;20176;-64
2023/04/22 02:02:25;;;;;;;0.30;0.30;;;10.70;99.90;;;;;;5030332;28;20037;-64
2023/04/22 02:04:51;;;;;;;0.20;0.20;;;10.70;99.90;;;;;;5031001;28;20049;-64
2023/04/22 02:07:16;;;;;;;0.10;0.10;;;10.70;99.90;;;;;;5028915;28;20041;-64
2023/04/22 02:09:42;;;;;;;0.10;0.10;;;10.60;99.90;;;;;;5021874;28;20053;-64
2023/04/22 02:12:08;;;;;;;0.20;0.20;;;10.60;99.90;;;;;;5023860;28;20052;-64
2023/04/22 02:14:33;;;;;;;0.10;0.10;;;10.60;99.90;;;;;;5025224;28;20064;-64
2023/04/22 02:17:01;;;;;;;0.20;0.20;;;10.60;99.90;;;;;;5030407;28;20081;-64
2023/04/22 02:19:27;;;;;;;0.32;0.32;;;10.60;99.90;;;;;;5018431;28;20046;-64
2023/04/22 02:21:53;;;;;;;0.40;0.40;;;10.50;99.90;;;;;;5030916;28;20065;-64
2023/04/22 02:24:19;;;;;;;0.10;0.10;;;10.50;99.90;;;;;;5029683;28;20390;-64
2023/04/22 02:26:46;;;;;;;0.20;0.20;;;10.50;99.90;;;;;;5025955;28;20113;-64
2023/04/22 02:29:12;;;;;;;0.20;0.20;;;10.50;99.90;;;;;;5027495;28;20452;-64
2023/04/22 02:31:37;;;;;;;0.05;0.05;;;10.50;99.90;;;;;;5030184;28;20072;-64
2023/04/22 02:34:03;;;;;;;0.20;0.20;;;10.50;99.90;;;;;;5028666;28;20512;-64
2023/04/22 02:36:30;;;;;;;0.13;0.13;;;10.50;99.90;;;;;;5012104;28;20045;-64
2023/04/22 02:38:56;;;;;;;0.20;0.20;;;10.50;99.90;;;;;;5025702;28;20041;-63
2023/04/22 02:41:22;;;;;;;0.40;0.40;;;10.50;99.90;;;;;;5030767;28;20171;-64
2023/04/22 02:43:48;;;;;;;0.35;0.35;;;10.40;99.90;;;;;;5024956;28;20048;-64
2023/04/22 02:46:17;;;;;;;0.45;0.45;;;10.40;99.90;;;;;;5022485;28;20057;-64
2023/04/22 02:48:42;;;;;;;0.10;0.10;;;10.30;99.90;;;;;;5019165;28;20046;-64
2023/04/22 02:51:08;;;;;;;0.20;0.20;;;10.30;99.90;;;;;;5022148;28;20050;-64
2023/04/22 02:53:34;;;;;;;0.17;0.17;;;10.30;99.90;;;;;;5024823;28;20877;-63
2023/04/22 02:55:59;;;;;;;0.10;0.10;;;10.40;99.90;;;;;;5025063;28;20135;-64
2023/04/22 02:58:25;;;;;;;0.13;0.13;;;10.30;99.90;;;;;;5012791;28;20037;-64
2023/04/22 03:00:51;;;;;;;0.10;0.10;;;10.30;99.90;;;;;;5030653;28;20405;-64
2023/04/22 03:03:17;;;;;;;0.10;0.10;;;10.30;99.90;;;;;;5030088;28;20493;-64
2023/04/22 03:05:43;;;;;;;0.32;0.32;;;10.30;99.90;;;;;;5018385;28;20107;-63
2023/04/22 03:08:09;;;;;;;5.07;1.55;;;10.30;99.90;;;;;;5026739;28;20040;-64
2023/04/22 03:10:35;;;;;;;0.77;0.35;;;10.30;99.90;;;;;;5027127;28;20049;-63
2023/04/22 03:13:00;;;;;;;0.30;0.30;;;10.30;99.90;;;;;;5025681;28;20057;-64
2023/04/22 03:15:26;;;;;;;0.50;0.50;;;10.30;99.90;;;;;;5030424;28;20052;-64
2023/04/22 03:17:51;;;;;;;0.32;0.30;;;10.30;99.90;;;;;;5030270;28;20038;-64
2023/04/22 03:20:17;;;;;;;0.00;0.00;;;10.20;99.90;;;;;;5025342;28;20045;-64
2023/04/22 03:22:43;;;;;;;0.05;0.05;;;10.20;99.90;;;;;;5025342;28;20034;-64
2023/04/22 03:25:10;;;;;;;12.05;1.55;;;10.20;99.90;;;;;;5030769;28;20045;-63
2023/04/22 03:27:35;;;;;;;0.50;0.50;;;10.20;99.90;;;;;;5009312;28;20041;-63
2023/04/22 03:30:01;;;;;;;0.10;0.10;;;10.20;99.90;;;;;;5017480;28;20040;-63
2023/04/22 03:32:27;;;;;;;0.20;0.20;;;10.20;99.90;;;;;;5018533;28;20478;-63
2023/04/22 03:34:52;;;;;;;0.17;0.17;;;10.10;99.90;;;;;;5016210;28;20080;-64
2023/04/22 03:37:18;;;;;;;0.30;0.30;;;10.10;99.90;;;;;;5012602;28;20465;-64
2023/04/22 03:39:43;;;;;;;0.35;0.35;;;10.10;99.90;;;;;;5026810;28;20052;-63
2023/04/22 03:42:10;;;;;;;3.83;2.03;;;10.10;99.90;;;;;;5020420;28;20038;-63
2023/04/22 03:44:35;;;;;;;0.20;0.20;;;10.10;99.90;;;;;;5034033;28;20136;-64
2023/04/22 03:47:01;;;;;;;0.10;0.10;;;10.00;99.90;;;;;;5018030;28;20132;-63
2023/04/22 03:49:27;;;;;;;0.10;0.10;;;10.00;99.90;;;;;;5033478;28;20606;-63
2023/04/22 03:51:52;;;;;;;0.17;0.17;;;10.00;99.90;;;;;;5033253;28;20049;-63
2023/04/22 03:54:18;;;;;;;0.10;0.10;;;9.90;99.90;;;;;;5031087;28;20065;-63
2023/04/22 03:56:43;;;;;;;0.30;0.30;;;9.80;99.90;;;;;;5023871;28;20057;-63
2023/04/22 03:59:09;;;;;;;0.20;0.20;;;9.90;99.90;;;;;;5031805;28;20072;-63
2023/04/22 04:01:35;;;;;;;0.30;0.30;;;9.90;99.90;;;;;;5026080;28;20049;-63
2023/04/22 04:04:01;;;;;;;0.28;0.28;;;9.90;99.90;;;;;;5033862;28;20473;-63
2023/04/22 04:06:27;;;;;;;0.40;0.40;;;9.90;99.90;;;;;;5025112;28;20046;-63
2023/04/22 04:08:53;;;;;;;0.25;0.25;;;9.80;99.90;;;;;;5022242;28;20525;-63
2023/04/22 04:11:18;;;;;;;0.68;0.68;;;9.80;99.90;;;;;;5025604;28;20053;-64
2023/04/22 04:13:44;;;;;;;0.30;0.30;;;9.80;99.90;;;;;;5033996;28;20049;-63
2023/04/22 04:16:09;;;;;;;0.43;0.43;;;9.80;99.90;;;;;;5033103;28;20091;-64
2023/04/22 04:18:35;;;;;;;0.40;0.40;;;9.80;99.90;;;;;;5027204;28;20034;-63
2023/04/22 04:21:01;;;;;;;0.10;0.10;;;9.70;99.90;;;;;;5023923;28;20050;-64
2023/04/22 04:23:27;;;;;;;0.10;0.10;;;9.80;99.90;;;;;;5032116;28;20042;-63
2023/04/22 04:25:54;;;;;;;0.30;0.30;;;9.70;99.90;;;;;;5028579;28;20092;-63
2023/04/22 04:28:20;;;;;;;0.73;0.73;;;9.80;99.90;;;;;;5014765;28;20561;-63
2023/04/22 04:30:46;;;;;;;0.35;0.35;;;9.70;99.90;;;;;;5028207;28;20059;-63
2023/04/22 04:33:15;;;;;;;0.30;0.30;;;9.60;99.90;;;;;;5025798;28;20037;-63
2023/04/22 04:35:42;;;;;;;0.20;0.20;;;9.60;99.90;;;;;;5020197;28;20042;-63
2023/04/22 04:38:07;;;;;;;0.20;0.20;;;9.60;99.90;;;;;;5021573;28;20146;-63
2023/04/22 04:40:34;;;;;;;0.52;0.52;;;9.50;99.90;;;;;;5032418;28;21079;-63
2023/04/22 04:43:01;;;;;;;0.10;0.10;;;9.50;99.90;;;;;;5029510;28;20512;-63
2023/04/22 04:45:27;;;;;;;0.35;0.35;;;9.50;99.90;;;;;;5027771;28;20056;-63
2023/04/22 04:47:53;;;;;;;0.52;0.52;;;9.50;99.90;;;;;;5019184;28;20041;-63
2023/04/22 04:50:19;;;;;;;0.20;0.20;;;9.50;99.90;;;;;;5023251;28;20054;-63
2023/04/22 04:52:47;;;;;;;0.25;0.25;;;9.50;99.90;;;;;;5027808;28;20049;-63
2023/04/22 04:55:13;;;;;;;0.65;0.65;;;9.50;99.90;;;;;;5027045;28;20509;-63
2023/04/22 04:57:39;;;;;;;0.43;0.43;;;9.40;99.90;;;;;;5023492;28;20051;-63
2023/04/22 05:00:06;;;;;;;0.10;0.10;;;9.50;99.90;;;;;;5021860;28;20048;-63
2023/04/22 05:02:31;;;;;;;0.10;0.10;;;9.50;99.90;;;;;;5032641;28;20049;-63
2023/04/22 05:04:57;;;;;;;0.10;0.10;;;9.50;99.90;;;;;;5024803;28;20045;-63
2023/04/22 05:07:22;;;;;;;0.10;0.10;;;9.40;99.90;;;;;;5022651;28;20049;-63
2023/04/22 05:09:48;;;;;;;0.40;0.40;;;9.50;99.90;;;;;;5032145;28;20045;-63
2023/04/22 05:12:14;;;;;;;0.52;0.52;;;9.50;99.90;;;;;;5020409;28;20050;-63
2023/04/22 05:14:40;;;;;;;0.10;0.10;;;9.50;99.90;;;;;;5018723;28;20037;-64
2023/04/22 05:17:06;;;;;;;0.25;0.25;;;9.40;99.90;;;;;;5032295;28;20046;-63
2023/04/22 05:19:31;;;;;;;0.30;0.20;;;9.50;99.90;;;;;;5030952;28;20056;-64
2023/04/22 05:21:57;;;;;;;0.10;0.10;;;9.50;99.90;;;;;;5027858;28;20092;-64
2023/04/22 05:24:23;;;;;;;0.00;0.00;;;9.60;99.90;;;;;;5028025;28;20070;-64
2023/04/22 05:26:49;;;;;;;0.10;0.10;;;9.60;99.90;;;;;;5028681;28;20044;-64
2023/04/22 05:29:14;;;;;;;0.03;0.03;;;9.70;99.90;;;;;;5026419;28;20436;-64
2023/04/22 05:31:40;;;;;;;0.52;0.40;;;9.70;99.90;;;;;;5032018;28;20041;-63
2023/04/22 05:34:05;;;;;;;0.00;0.00;;;9.60;99.90;;;;;;5014812;28;20096;-64
2023/04/22 05:36:31;;;;;;;0.10;0.10;;;9.60;99.90;;;;;;5012819;28;20148;-63
2023/04/22 05:38:56;;;;;;;0.45;0.45;;;9.70;99.90;;;;;;5027509;28;20084;-63
2023/04/22 05:41:22;;;;;;;0.10;0.10;;;9.70;99.90;;;;;;5030893;28;20043;-63
2023/04/22 05:43:48;;;;;;;0.20;0.20;;;9.80;99.90;;;;;;5028237;28;20496;-64
2023/04/22 05:46:13;;;;;;;0.40;0.40;;;9.90;99.90;;;;;;5021790;28;20045;-64
2023/04/22 05:48:39;;;;;;;0.32;0.32;;;9.90;99.90;;;;;;5029343;28;20071;-63
2023/04/22 05:51:05;;;;;;;0.10;0.10;;;9.90;99.90;;;;;;5026951;28;20054;-64
2023/04/22 05:53:30;;;;;;;0.10;0.10;;;10.00;99.90;;;;;;5027103;28;20135;-64
2023/04/22 05:55:56;;;;;;;0.10;0.10;;;10.00;99.90;;;;;;5022798;28;20034;-64
2023/04/22 05:58:21;;;;;;;0.10;0.10;;;9.90;99.90;;;;;;5026587;28;20184;-63
2023/04/22 06:00:47;;;;;;;0.10;0.10;;;9.90;99.90;;;;;;5026628;28;20037;-64
2023/04/22 06:03:12;;;;;;;0.20;0.20;;;9.90;99.90;;;;;;5021029;28;20041;-64
2023/04/22 06:05:38;;;;;;;0.43;0.43;;;10.00;99.90;;;;;;5024531;28;20049;-64
2023/04/22 06:08:03;;;;;;;0.77;0.77;;;10.00;99.90;;;;;;5028999;28;20057;-64
2023/04/22 06:10:29;;;;;;;0.28;0.28;;;10.10;99.90;;;;;;5026926;28;20139;-63
2023/04/22 06:12:55;;;;;;;0.10;0.10;;;10.20;99.90;;;;;;5026019;28;20056;-64
2023/04/22 06:15:20;;;;;;;0.10;0.10;;;10.30;99.90;;;;;;5051196;28;20049;-63
2023/04/22 06:17:47;;;;;;;0.10;0.10;;;10.40;99.90;;;;;;5014694;28;20042;-63
2023/04/22 06:20:13;;;;;;;0.10;0.10;;;10.40;99.90;;;;;;5020160;28;20052;-64
2023/04/22 06:22:39;;;;;;;0.10;0.10;;;10.40;99.90;;;;;;5019501;28;20077;-63
2023/04/22 06:25:05;;;;;;;0.25;0.25;;;10.50;99.90;;;;;;5020098;28;20465;-63
2023/04/22 06:27:30;;;;;;;8.43;0.80;;;10.50;99.90;;;;;;5030208;28;20033;-64
2023/04/22 06:29:56;;;;;;;0.95;0.95;;;10.60;99.90;;;;;;5026526;28;20521;-64
2023/04/22 06:32:21;;;;;;;0.20;0.20;;;10.60;99.90;;;;;;5025642;28;20058;-63
2023/04/22 06:34:47;;;;;;;0.20;0.20;;;10.60;99.90;;;;;;5030495;28;20049;-63
2023/04/22 06:37:13;;;;;;;0.30;0.30;;;10.70;99.90;;;;;;5024624;28;20115;-63
2023/04/22 06:39:38;;;;;;;0.40;0.40;;;10.70;99.90;;;;;;5025295;28;20374;-63
2023/04/22 06:42:04;;;;;;;0.30;0.30;;;10.80;99.90;;;;;;5030024;28;20083;-63
2023/04/22 06:44:30;;;;;;;0.10;0.10;;;10.80;99.90;;;;;;5024306;28;20048;-63
2023/04/22 06:46:56;;;;;;;0.65;0.65;;;10.90;99.90;;;;;;5019577;28;20054;-63
2023/04/22 06:49:22;;;;;;;0.55;0.55;;;10.90;99.90;;;;;;5030255;28;20559;-63
2023/04/22 06:51:47;;;;;;;0.30;0.30;;;11.00;99.90;;;;;;5016612;28;20041;-63
2023/04/22 06:54:13;;;;;;;1.73;0.43;;;11.00;99.90;;;;;;5021644;28;20045;-63
2023/04/22 06:56:38;;;;;;;0.10;0.10;;;11.10;99.90;;;;;;5027471;28;20645;-63
2023/04/22 06:59:06;;;;;;;0.15;0.15;;;10.90;99.90;;;;;;5017491;28;20050;-63
2023/04/22 07:01:32;;;;;;;0.40;0.40;;;11.00;99.90;;;;;;5014755;28;20042;-63
2023/04/22 07:03:57;;;;;;;0.10;0.10;;;11.10;99.90;;;;;;5020776;28;20366;-63
2023/04/22 07:06:23;;;;;;;0.10;0.10;;;11.20;99.90;;;;;;5027762;28;20056;-63
2023/04/22 07:08:49;;;;;;;0.28;0.28;;;11.20;99.90;;;;;;5030207;28;20060;-63
2023/04/22 07:11:14;;;;;;;0.20;0.20;;;11.20;99.90;;;;;;5026770;28;20111;-63
2023/04/22 07:13:40;;;;;;;0.10;0.10;;;11.30;99.90;;;;;;5022418;28;20041;-63
2023/04/22 07:16:06;;;;;;;0.30;0.30;;;11.30;99.90;;;;;;5029531;28;20124;-64
2023/04/22 07:18:31;;;;;;;0.10;0.10;;;11.40;99.90;;;;;;5027459;28;20456;-64
2023/04/22 07:20:57;;;;;;;0.10;0.10;;;11.40;99.90;;;;;;5022963;28;20141;-63
2023/04/22 07:23:23;;;;;;;0.10;0.10;;;11.50;99.90;;;;;;5030015;28;20041;-63
2023/04/22 07:25:48;;;;;;;0.00;0.00;;;11.50;99.90;;;;;;5026194;28;20104;-64
2023/04/22 07:28:14;;;;;;;0.10;0.10;;;11.50;99.90;;;;;;5010761;28;20504;-63
2023/04/22 07:30:39;;;;;;;0.57;0.25;;;11.60;99.90;;;;;;5024739;28;20048;-63
2023/04/22 07:33:05;;;;;;;0.10;0.10;;;11.60;99.90;;;;;;5027176;28;20041;-63
2023/04/22 07:35:31;;;;;;;0.10;0.10;;;11.60;99.90;;;;;;5015761;28;20050;-63
2023/04/22 07:37:56;;;;;;;0.10;0.10;;;11.70;99.90;;;;;;5017520;28;20120;-63
2023/04/22 07:40:22;;;;;;;0.30;0.30;;;11.70;99.90;;;;;;5018988;28;20418;-63
2023/04/22 07:42:47;;;;;;;0.20;0.20;;;11.80;99.90;;;;;;5024280;28;20400;-63
2023/04/22 07:45:13;;;;;;;1.45;0.40;;;11.80;99.90;;;;;;5029918;28;20170;-63
2023/04/22 07:47:38;;;;;;;0.20;0.20;;;11.80;99.90;;;;;;5029069;28;20521;-63
2023/04/22 07:50:05;;;;;;;2.97;2.28;;;11.90;99.90;;;;;;5019246;28;20057;-63
2023/04/22 07:52:30;;;;;;;0.25;0.25;;;12.00;99.90;;;;;;5019323;28;20056;-63
2023/04/22 07:54:56;;;;;;;1.27;1.17;;;12.00;99.90;;;;;;5010965;28;20058;-63
2023/04/22 07:57:22;;;;;;;0.00;0.00;;;12.10;99.90;;;;;;5029653;28;20117;-63
2023/04/22 07:59:51;;;;;;;0.20;0.20;;;12.30;99.90;;;;;;5026960;28;20045;-63
2023/04/22 08:02:16;;;;;;;0.22;0.22;;;12.30;99.90;;;;;;5016586;28;20393;-63
2023/04/22 08:04:42;;;;;;;2.85;0.85;;;12.40;99.90;;;;;;5027333;28;20131;-63
2023/04/22 08:07:08;;;;;;;0.10;0.10;;;12.50;99.90;;;;;;5023150;28;20060;-63
2023/04/22 08:09:33;;;;;;;1.17;0.75;;;12.50;99.90;;;;;;5022739;28;20133;-63
2023/04/22 08:12:00;;;;;;;1.75;1.27;;;12.60;99.90;;;;;;5021876;28;20050;-63
2023/04/22 08:14:25;;;;;;;0.38;0.38;;;12.70;99.90;;;;;;5022892;28;20049;-63
2023/04/22 08:16:52;;;;;;;0.22;0.22;;;12.70;99.90;;;;;;5028725;28;20034;-64
2023/04/22 08:19:18;;;;;;;0.10;0.10;;;12.80;99.90;;;;;;5029333;28;20141;-63
2023/04/22 08:21:44;;;;;;;0.45;0.45;;;12.80;99.90;;;;;;5015840;28;20046;-63
2023/04/22 08:24:10;;;;;;;0.10;0.10;;;12.80;99.90;;;;;;5023104;28;20473;-63
2023/04/22 08:26:37;;;;;;;2.05;0.75;;;12.90;99.90;;;;;;5020461;28;20095;-64
2023/04/22 08:29:03;;;;;;;0.10;0.10;;;13.00;99.90;;;;;;5027539;28;20121;-63
2023/04/22 08:31:28;;;;;;;0.10;0.10;;;13.20;99.90;;;;;;5021023;28;20069;-63
2023/04/22 08:33:54;;;;;;;2.20;0.90;;;13.30;99.90;;;;;;5027408;28;20483;-63
2023/04/22 08:36:22;;;;;;;0.77;0.77;;;13.50;99.90;;;;;;5024781;28;20041;-64
2023/04/22 08:38:48;;;;;;;0.57;0.57;;;13.90;99.90;;;;;;5024692;28;20049;-64
2023/04/22 08:41:14;;;;;;;0.25;0.25;;;14.10;99.90;;;;;;5020800;28;20528;-64
2023/04/22 08:43:40;;;;;;;0.98;0.98;;;14.40;99.90;;;;;;5016614;28;20050;-64
2023/04/22 08:46:06;;;;;;;0.85;0.85;;;14.80;99.90;;;;;;5021221;28;20049;-64
2023/04/22 08:48:32;;;;;;;1.10;0.68;;;15.10;99.90;;;;;;5029795;28;20048;-64
2023/04/22 08:50:58;;;;;;;0.00;0.00;;;15.50;99.90;;;;;;5013176;28;20414;-64
2023/04/22 08:53:24;;;;;;;0.10;0.10;;;15.90;99.90;;;;;;5027809;28;20405;-64
2023/04/22 08:55:50;;;;;;;0.20;0.20;;;16.20;99.90;;;;;;5032934;28;20037;-64
2023/04/22 08:58:16;;;;;;;0.63;0.63;;;16.80;99.90;;;;;;5023795;28;20432;-64
2023/04/22 09:00:43;;;;;;;1.15;0.85;;;17.20;99.90;;;;;;5021496;28;20116;-64
2023/04/22 09:03:09;;;;;;;1.88;0.70;;;17.30;99.90;;;;;;5030331;28;20124;-64
2023/04/22 09:05:37;;;;;;;0.30;0.30;;;17.30;99.90;;;;;;5024600;28;20056;-64
2023/04/22 09:08:03;;;;;;;0.95;0.52;;;17.10;99.90;;;;;;5032427;28;20037;-64
2023/04/22 09:10:30;;;;;;;0.15;0.15;;;16.90;99.90;;;;;;5032563;28;20049;-64
2023/04/22 09:12:57;;;;;;;1.77;0.68;;;17.00;99.90;;;;;;5015729;28;20046;-64
2023/04/22 09:15:24;;;;;;;0.60;0.60;;;17.00;99.90;;;;;;5021983;28;20041;-64
2023/04/22 09:17:52;;;;;;;0.32;0.32;;;17.10;99.90;;;;;;5031545;28;20099;-64
2023/04/22 09:20:24;;;;;;;0.35;0.35;;;17.40;99.90;;;;;;5024952;28;20230;-64
2023/04/22 09:22:51;;;;;;;2.90;1.25;;;17.30;99.90;;;;;;5021837;28;20063;-64
2023/04/22 09:25:22;;;;;;;2.00;0.93;;;17.20;99.90;;;;;;5016346;28;20041;-64
2023/04/22 09:27:52;;;;;;;0.63;0.52;;;16.90;99.90;;;;;;5027905;28;20070;-64
2023/04/22 09:30:36;;;;;;;1.02;0.95;;;16.60;99.90;;;;;;5031973;28;20060;-64
2023/04/22 09:33:03;;;;;;;;;;;16.60;99.90;;;;;;5029464;28;20053;-64
2023/04/22 09:35:30;;;;;;;0.40;0.40;;;16.70;99.90;;;;;;5025825;28;20365;-64
2023/04/22 09:37:57;;;;;;;0.93;0.90;;;16.80;99.90;;;;;;5018752;28;20042;-64
2023/04/22 09:40:23;;;;;;;0.22;0.22;;;16.80;99.90;;;;;;5028878;28;20078;-64
2023/04/22 09:42:51;;;;;;;0.47;0.47;;;17.10;99.90;;;;;;5019866;28;20131;-64
2023/04/22 09:45:27;;;;;;;0.30;0.30;;;17.30;99.90;;;;;;5013911;28;20393;-64
2023/04/22 09:47:54;;;;;;;1.95;1.33;;;17.80;99.90;;;;;;5024253;28;20481;-64
2023/04/22 09:50:21;;;;;;;0.57;0.50;;;17.90;99.90;;;;;;5030909;28;20108;-64
2023/04/22 09:52:55;;;;;;;1.08;0.82;;;17.90;99.90;;;;;;5030466;28;20056;-64
2023/04/22 09:55:23;;;;;;;0.80;0.50;;;18.30;99.90;;;;;;5028058;28;20049;-64
2023/04/22 09:57:52;;;;;;;0.00;0.00;;;18.20;99.90;;;;;;5026191;28;20416;-64
2023/04/22 10:00:18;;;;;;;1.27;1.02;;;18.40;99.90;;;;;;5023284;28;20123;-64
2023/04/22 10:02:44;;;;;;;0.55;0.55;;;18.40;99.90;;;;;;5025832;28;20073;-64
2023/04/22 10:05:11;;;;;;;0.50;0.50;;;18.40;99.90;;;;;;5024982;28;20504;-64
2023/04/22 10:07:41;;;;;;;0.60;0.60;;;18.50;99.90;;;;;;5022999;28;20049;-64
2023/04/22 10:10:08;;;;;;;0.85;0.85;;;18.50;99.90;;;;;;5016625;28;20034;-64
2023/04/22 10:12:35;;;;;;;0.60;0.60;;;18.60;99.90;;;;;;5024525;28;20516;-64
2023/04/22 10:15:05;;;;;;;0.38;0.30;;;18.50;99.90;;;;;;5029657;28;20080;-64
2023/04/22 10:17:34;;;;;;;1.08;0.85;;;18.70;99.90;;;;;;5028541;28;20060;-64
2023/04/22 10:20:03;;;;;;;1.30;1.20;;;18.80;99.90;;;;;;5013023;28;20388;-64
2023/04/22 10:22:31;;;;;;;1.42;1.17;;;18.70;99.90;;;;;;5025216;28;20055;-64
2023/04/22 10:24:57;;;;;;;0.88;0.73;;;18.90;99.90;;;;;;5022523;28;20114;-64
2023/04/22 10:27:23;;;;;;;2.10;1.67;;;19.00;99.90;;;;;;5026024;28;20041;-64
2023/04/22 10:29:49;;;;;;;0.17;0.15;;;18.80;99.90;;;;;;5020078;28;20359;-64
2023/04/22 10:32:18;;;;;;;0.20;0.20;;;18.80;99.90;;;;;;5025930;28;20045;-64
2023/04/22 10:34:46;;;;;;;0.22;0.22;;;18.80;99.90;;;;;;5030756;28;20508;-64
2023/04/22 10:37:16;;;;;;;0.63;0.63;;;18.70;99.90;;;;;;5016791;28;20073;-64
2023/04/22 10:40:02;;;;;;;0.25;0.25;;;18.50;99.90;;;;;;5012059;28;20084;-64
2023/04/22 10:42:28;;;;;;;0.22;0.22;;;18.20;99.90;;;;;;5027765;28;20037;-64
2023/04/22 10:45:00;;;;;;;0.20;0.20;;;18.00;99.90;;;;;;5030675;28;20598;-64
2023/04/22 10:47:33;;;;;;;2.90;1.98;;;17.90;99.90;;;;;;5023822;28;20034;-64
2023/04/22 10:50:08;;;;;;;;;;;18.10;99.90;;;;;;5022888;28;20528;-64
2023/04/22 10:52:34;;;;;;;1.65;1.35;;;18.30;99.90;;;;;;5018570;28;19929;-64
2023/04/22 10:55:00;;;;;;;1.63;0.70;;;18.60;99.90;;;;;;5030277;28;20049;-64
2023/04/22 10:57:36;;;;;;;2.47;1.92;;;18.70;99.90;;;;;;5017056;28;20579;-64
2023/04/22 11:00:18;;;;;;;0.60;0.60;;;18.90;99.90;;;;;;5022020;28;20053;-67
2023/04/22 11:02:52;;;;;;;2.30;0.90;;;19.00;99.90;;;;;;5022256;28;20053;-64
2023/04/22 11:05:27;;;;;;;0.10;0.10;;;18.90;99.90;;;;;;5026109;28;20077;-64
2023/04/22 11:07:54;;;;;;;0.60;0.52;;;18.70;99.90;;;;;;5018765;28;20038;-63
2023/04/22 11:10:41;;;;;;;3.58;1.05;;;18.80;99.90;;;;;;5030326;28;20045;-64
2023/04/22 11:13:12;;;;;;;0.45;0.45;;;18.80;99.90;;;;;;5026436;28;20137;-64
2023/04/22 11:15:41;;;;;;;0.40;0.40;;;18.90;99.90;;;;;;5022213;28;20128;-63
2023/04/22 11:18:20;;;;;;;0.40;0.40;;;18.90;99.90;;;;;;5024657;28;20053;-63
2023/04/22 11:20:48;;;;;;;0.80;0.80;;;19.00;99.90;;;;;;5022569;28;20049;-64
2023/04/22 11:23:22;;;;;;;0.25;0.25;;;19.00;99.90;;;;;;5009687;28;20084;-64
2023/04/22 11:26:03;;;;;;;0.20;0.20;;;19.40;99.90;;;;;;5023973;28;20060;-64
2023/04/22 11:28:28;;;;;;;0.93;0.63;;;19.50;99.90;;;;;;5019054;28;20042;-64
2023/04/22 11:31:05;;;;;;;0.10;0.10;;;19.40;99.90;;;;;;5013435;28;20466;-64
2023/04/22 11:33:33;;;;;;;0.10;0.10;;;19.20;99.90;;;;;;5029794;28;20069;-63
2023/04/22 11:35:58;;;;;;;0.55;0.55;;;19.10;99.90;;;;;;5023613;28;20088;-64
2023/04/22 11:38:24;;;;;;;1.40;0.85;;;19.30;99.90;;;;;;5021412;28;20085;-64
2023/04/22 11:40:50;;;;;;;0.75;0.75;;;19.20;99.90;;;;;;5024261;28;20057;-64
2023/04/22 11:43:17;;;;;;;0.57;0.35;;;19.30;99.90;;;;;;5015440;28;20045;-64
2023/04/22 11:45:43;;;;;;;0.00;0.00;;;19.40;99.90;;;;;;5015765;28;20113;-64
2023/04/22 11:48:10;;;;;;;1.33;1.17;;;19.40;99.90;;;;;;5018618;28;20180;-64
2023/04/22 11:50:41;;;;;;;0.25;0.25;;;19.40;99.90;;;;;;5023245;28;20049;-64
2023/04/22 11:53:14;;;;;;;0.38;0.38;;;19.30;99.90;;;;;;5029462;28;20531;-64
2023/04/22 11:55:40;;;;;;;0.32;0.32;;;19.20;99.90;;;;;;5026219;28;20403;-64
2023/04/22 11:58:08;;;;;;;0.20;0.20;;;19.30;99.90;;;;;;5023914;28;20037;-64
2023/04/22 12:00:41;;;;;;;0.10;0.10;;;19.30;99.90;;;;;;5018288;28;20429;-64
2023/04/22 12:03:12;;;;;;;0.60;0.60;;;19.30;99.90;;;;;;5033997;28;20053;-64
2023/04/22 12:05:44;;;;;;;0.75;0.35;;;19.20;99.90;;;;;;5033500;28;20056;-64
2023/04/22 12:08:15;;;;;;;4.70;0.93;;;19.30;99.90;;;;;;5029013;28;20045;-64
2023/04/22 12:10:43;;;;;;;3.17;1.85;;;19.20;99.90;;;;;;5027972;28;20110;-64
2023/04/22 12:13:10;;;;;;;0.20;0.20;;;19.00;99.90;;;;;;5033672;28;20482;-64
2023/04/22 12:15:41;;;;;;;3.40;1.85;;;19.10;99.90;;;;;;5030449;28;20067;-64
2023/04/22 12:18:07;;;;;;;1.08;0.43;;;19.20;99.90;;;;;;5024637;28;20041;-64
2023/04/22 12:20:38;;;;;;;0.35;0.35;;;19.20;99.90;;;;;;5033354;28;20389;-64
2023/04/22 12:23:04;;;;;;;0.65;0.65;;;19.10;99.90;;;;;;5015087;28;20049;-64
2023/04/22 12:25:32;;;;;;;0.10;0.05;;;18.90;99.90;;;;;;5022728;28;20068;-64
2023/04/22 12:27:58;;;;;;;0.20;0.20;;;18.80;99.90;;;;;;5021550;28;20473;-64
2023/04/22 12:30:24;;;;;;;0.00;0.00;;;18.80;99.90;;;;;;5033102;28;20064;-64
2023/04/22 12:32:51;;;;;;;0.98;0.10;;;18.90;99.90;;;;;;5033052;28;20135;-64
2023/04/22 12:35:16;;;;;;;1.40;0.30;;;18.90;99.90;;;;;;5029980;28;20132;-64
2023/04/22 12:37:42;;;;;;;0.30;0.20;;;18.80;99.90;;;;;;5019199;28;20192;-64
2023/04/22 12:40:09;;;;;;;0.75;0.75;;;18.70;99.90;;;;;;5033293;28;20045;-65
2023/04/22 12:42:34;;;;;;;0.30;0.30;;;18.70;99.90;;;;;;5033950;28;20484;-60
2023/04/22 12:45:01;;;;;;;0.30;0.30;;;18.60;99.90;;;;;;5032160;28;20049;-62